Time;durP1;ratioP1;P1;durP2;ratioP2;P2;SDS_P1;SDS_P2;PMS_P1;PMS_P2;Temp;Humidity;BMP_temperature;BMP_pressure;BME280_temperature;BME280_humidity;BME280_pressure;Samples;Min_cycle;Max_cycle;Signal;HPM_P1;HPM_P2
2021/09/11 00:00:36;;;;;;;;;4.00;4.00;;;;;25.40;51.47;101292.31;5076440;27;45269;-48
2021/09/11 00:03:01;;;;;;;;;6.00;4.75;;;;;25.40;51.40;101293.16;5077155;28;45189;-48
2021/09/11 00:05:27;;;;;;;;;5.25;5.00;;;;;25.39;51.15;101299.41;5076469;28;45569;-50
2021/09/11 00:07:54;;;;;;;;;5.75;4.00;;;;;25.40;51.52;101298.47;5076357;27;45194;-47
2021/09/11 00:10:19;;;;;;;;;5.00;5.00;;;;;25.40;51.59;101306.44;5076550;28;45262;-49
2021/09/11 00:12:45;;;;;;;;;4.00;4.00;;;;;25.40;51.55;101308.22;5076637;28;45550;-47
2021/09/11 00:15:15;;;;;;;;;4.00;4.00;;;;;25.40;51.15;101297.59;5076280;28;45651;-47
2021/09/11 00:17:41;;;;;;;;;5.00;4.00;;;;;25.38;51.39;101300.34;5076518;28;45334;-49
2021/09/11 00:20:08;;;;;;;;;5.00;4.00;;;;;25.39;51.13;101302.03;5076365;28;45211;-50
2021/09/11 00:22:34;;;;;;;;;4.00;4.00;;;;;25.40;50.91;101297.59;5077065;27;45240;-49
2021/09/11 00:24:59;;;;;;;;;5.25;4.00;;;;;25.40;51.48;101297.59;5092071;27;46102;-50
2021/09/11 00:27:24;;;;;;;;;4.00;4.00;;;;;25.40;51.28;101302.91;5076126;28;45320;-48
2021/09/11 00:29:50;;;;;;;;;3.75;3.75;;;;;25.39;50.84;101302.03;5076426;28;45271;-50
2021/09/11 00:32:15;;;;;;;;;3.75;3.75;;;;;25.39;51.07;101304.69;5076374;28;45536;-49
2021/09/11 00:34:41;;;;;;;;;4.50;4.50;;;;;25.39;51.06;101298.56;5076002;28;46431;-50
2021/09/11 00:37:06;;;;;;;;;5.50;4.00;;;;;25.41;50.69;101296.69;5076194;28;45500;-47
2021/09/11 00:39:32;;;;;;;;;5.00;3.25;;;;;25.40;51.32;101303.78;5075105;28;45416;-48
2021/09/11 00:41:57;;;;;;;;;5.00;3.00;;;;;25.39;50.72;101301.22;5076549;28;45294;-46
2021/09/11 00:44:23;;;;;;;;;3.25;3.25;;;;;25.39;50.82;101295.91;5079518;27;45507;-50
2021/09/11 00:46:48;;;;;;;;;4.25;4.00;;;;;25.39;50.76;101295.91;5079600;28;45401;-46
2021/09/11 00:49:13;;;;;;;;;3.75;2.75;;;;;25.39;50.40;101295.91;5079728;27;45276;-47
2021/09/11 00:51:40;;;;;;;;;5.75;4.25;;;;;25.39;50.83;101291.44;5079651;27;45459;-46
2021/09/11 00:54:05;;;;;;;;;6.50;4.00;;;;;25.39;50.79;101290.59;5095379;27;48094;-49
2021/09/11 00:56:33;;;;;;;;;3.75;3.75;;;;;25.40;51.16;101297.59;5079801;28;45341;-50
2021/09/11 00:58:59;;;;;;;;;5.50;5.00;;;;;25.39;50.84;101301.22;5079498;28;45300;-48
2021/09/11 01:01:25;;;;;;;;;4.00;4.00;;;;;25.36;51.23;101296.09;5079674;28;45308;-50
2021/09/11 01:03:50;;;;;;;;;4.75;4.00;;;;;25.39;50.56;101306.53;5079249;28;45492;-48
2021/09/11 01:06:15;;;;;;;;;3.00;3.00;;;;;25.39;51.25;101306.53;5079234;28;45506;-51
2021/09/11 01:08:41;;;;;;;;;3.00;3.00;;;;;25.39;51.23;101317.13;5079480;28;45807;-52
2021/09/11 01:11:08;;;;;;;;;5.00;5.00;;;;;25.39;50.78;101306.53;5079359;28;45676;-49
2021/09/11 01:13:33;;;;;;;;;3.75;3.75;;;;;25.38;50.73;101310.97;5079443;28;45435;-47
2021/09/11 01:15:59;;;;;;;;;3.50;3.50;;;;;25.37;50.61;101306.59;5079076;28;45454;-47
2021/09/11 01:18:26;;;;;;;;;4.50;4.25;;;;;25.38;50.58;101310.13;5079247;28;45428;-46
2021/09/11 01:20:52;;;;;;;;;5.00;5.00;;;;;25.38;50.49;101312.78;5079273;28;45615;-47
2021/09/11 01:23:18;;;;;;;;;5.25;4.00;;;;;25.38;50.84;101312.78;5079014;28;46056;-49
2021/09/11 01:25:43;;;;;;;;;5.75;3.00;;;;;25.37;49.99;101319.88;5078910;28;45180;-48
2021/09/11 01:28:08;;;;;;;;;3.75;3.75;;;;;25.38;50.18;101323.38;5079140;27;45321;-47
2021/09/11 01:30:34;;;;;;;;;4.00;4.00;;;;;25.37;50.12;101317.22;5079519;28;45590;-47
2021/09/11 01:32:59;;;;;;;;;4.50;4.25;;;;;25.37;50.69;101314.56;5078741;27;46606;-51
2021/09/11 01:35:25;;;;;;;;;3.50;3.25;;;;;25.37;50.27;101317.22;5078897;28;45265;-51
2021/09/11 01:37:50;;;;;;;;;4.00;3.75;;;;;25.35;49.96;101313.84;5078913;28;45254;-50
2021/09/11 01:40:15;;;;;;;;;4.50;4.00;;;;;25.36;49.93;101318.16;5078892;28;45375;-47
2021/09/11 01:42:41;;;;;;;;;5.25;4.00;;;;;25.35;50.11;101321.81;5078489;28;45349;-48
2021/09/11 01:45:12;;;;;;;;;4.00;4.00;;;;;25.36;50.07;101323.47;5079017;28;45359;-48
2021/09/11 01:47:38;;;;;;;;;7.00;6.00;;;;;25.35;50.47;101327.13;5079063;28;45314;-48
2021/09/11 01:50:06;;;;;;;;;4.00;4.00;;;;;25.36;49.74;101323.47;5079115;28;45243;-49
2021/09/11 01:52:31;;;;;;;;;7.00;5.75;;;;;25.36;49.83;101325.28;5078507;28;45385;-47
2021/09/11 01:54:57;;;;;;;;;3.50;2.50;;;;;25.36;49.82;101330.59;5078051;28;45239;-48
2021/09/11 01:57:22;;;;;;;;;4.25;4.25;;;;;25.36;50.17;101327.94;5078738;27;45357;-50
2021/09/11 01:59:47;;;;;;;;;9.25;5.25;;;;;25.35;49.81;101319.16;5078595;27;45306;-47
2021/09/11 02:02:13;;;;;;;;;3.50;3.50;;;;;25.36;49.85;101317.34;5078251;28;45357;-48
2021/09/11 02:04:39;;;;;;;;;2.00;2.00;;;;;25.34;50.07;101314.81;5078782;28;45342;-47
2021/09/11 02:07:05;;;;;;;;;3.00;3.00;;;;;25.35;50.05;101320.94;5078812;28;45402;-47
2021/09/11 02:09:32;;;;;;;;;4.00;4.00;;;;;25.30;49.45;101314.13;5078615;28;45572;-48
2021/09/11 02:11:58;;;;;;;;;4.25;4.25;;;;;25.31;49.71;101310.53;5078288;28;46442;-51
2021/09/11 02:14:24;;;;;;;;;3.75;3.75;;;;;25.33;49.61;101318.41;5078156;28;45397;-52
2021/09/11 02:16:50;;;;;;;;;3.00;3.00;;;;;25.34;49.65;101324.53;5078307;27;45223;-47
2021/09/11 02:19:15;;;;;;;;;4.00;4.00;;;;;25.34;49.32;101327.19;5078365;27;45489;-48
2021/09/11 02:21:41;;;;;;;;;5.00;5.00;;;;;25.34;49.66;101327.19;5077924;28;46528;-47
2021/09/11 02:24:07;;;;;;;;;6.50;4.00;;;;;25.34;49.33;101319.25;5078225;28;45323;-47
2021/09/11 02:26:33;;;;;;;;;4.00;4.00;;;;;25.34;49.19;101324.53;5078140;28;45366;-49
2021/09/11 02:28:59;;;;;;;;;4.00;4.00;;;;;25.32;49.80;101317.53;5078348;28;45357;-48
2021/09/11 02:31:24;;;;;;;;;3.50;3.25;;;;;25.33;49.57;101321.06;5077845;28;46789;-48
2021/09/11 02:33:51;;;;;;;;;4.00;4.00;;;;;25.33;49.59;101323.72;5077892;28;45453;-48
2021/09/11 02:36:16;;;;;;;;;6.50;4.00;;;;;25.32;49.39;101314.06;5078017;27;45301;-49
2021/09/11 02:38:43;;;;;;;;;3.75;3.75;;;;;25.32;49.19;101312.22;5077968;28;45318;-49
2021/09/11 02:41:08;;;;;;;;;4.00;3.00;;;;;25.32;49.63;101312.22;5078026;28;46646;-47
2021/09/11 02:43:33;;;;;;;;;4.00;4.00;;;;;25.32;49.33;101306.94;5077732;28;45324;-48
2021/09/11 02:45:59;;;;;;;;;5.75;4.75;;;;;25.32;49.15;101306.09;5077811;28;45632;-49
2021/09/11 02:48:24;;;;;;;;;5.00;4.00;;;;;25.31;49.70;101305.22;5078043;28;45247;-48
2021/09/11 02:50:50;;;;;;;;;5.75;5.75;;;;;25.30;49.84;101311.47;5077652;28;46204;-47
2021/09/11 02:53:16;;;;;;;;;3.00;3.00;;;;;25.29;49.51;101306.28;5077526;28;45426;-48
2021/09/11 02:55:41;;;;;;;;;3.00;3.00;;;;;25.31;49.60;101309.69;5078066;28;45769;-48
2021/09/11 02:58:06;;;;;;;;;4.00;4.00;;;;;25.27;49.16;101301.09;5078094;27;45321;-47
2021/09/11 03:00:32;;;;;;;;;4.50;4.00;;;;;25.28;49.46;101302.81;5077163;27;45462;-48
2021/09/11 03:02:57;;;;;;;;;3.50;3.50;;;;;25.31;48.92;101307.88;5077581;28;45378;-48
2021/09/11 03:05:22;;;;;;;;;3.25;3.25;;;;;25.31;49.09;101309.69;5076685;28;45291;-48
2021/09/11 03:07:48;;;;;;;;;4.00;2.75;;;;;25.30;48.96;101310.66;5077618;28;45297;-51
2021/09/11 03:10:13;;;;;;;;;4.50;4.25;;;;;25.29;49.46;101312.47;5077298;27;45337;-48
2021/09/11 03:12:38;;;;;;;;;5.25;4.00;;;;;25.30;49.42;101313.31;5076412;28;45767;-48
2021/09/11 03:15:05;;;;;;;;;3.75;3.75;;;;;25.29;48.97;101309.81;5077439;28;45340;-47
2021/09/11 03:17:30;;;;;;;;;5.75;3.00;;;;;25.30;48.99;101313.31;5077526;28;45537;-48
2021/09/11 03:19:56;;;;;;;;;3.00;3.00;;;;;25.29;49.15;101311.59;5077143;28;46370;-49
2021/09/11 03:22:22;;;;;;;;;2.75;2.75;;;;;25.28;49.25;101305.44;5077076;28;45369;-49
2021/09/11 03:24:47;;;;;;;;;3.50;3.50;;;;;25.28;49.23;101305.44;5077182;28;45199;-46
2021/09/11 03:27:12;;;;;;;;;4.25;3.00;;;;;25.29;48.78;101306.28;5077676;28;45663;-47
2021/09/11 03:29:38;;;;;;;;;3.25;3.25;;;;;25.28;48.06;101310.75;5077019;28;46407;-48
2021/09/11 03:32:04;;;;;;;;;2.00;2.00;;;;;25.28;48.40;101313.41;5076927;28;45626;-48
2021/09/11 03:34:29;;;;;;;;;3.00;3.00;;;;;25.27;48.59;101309.06;5077120;28;45365;-49
2021/09/11 03:36:56;;;;;;;;;3.25;3.25;;;;;25.28;48.10;101313.41;5077138;28;45577;-48
2021/09/11 03:39:21;;;;;;;;;4.00;4.00;;;;;25.27;48.55;101311.72;5076750;28;46621;-47
2021/09/11 03:41:46;;;;;;;;;3.75;3.00;;;;;25.27;48.11;101305.53;5076823;27;45351;-48
2021/09/11 03:44:12;;;;;;;;;2.75;2.75;;;;;25.28;48.00;101316.06;5077351;27;45343;-46
2021/09/11 03:46:37;;;;;;;;;4.00;4.00;;;;;25.27;48.24;101317.03;5077050;28;45559;-46
2021/09/11 03:49:02;;;;;;;;;1.00;1.00;;;;;25.27;48.24;101309.06;5092211;27;54865;-45
2021/09/11 03:51:30;;;;;;;;;4.25;3.25;;;;;25.27;48.04;101311.72;5076631;27;45435;-46
2021/09/11 03:53:55;;;;;;;;;5.00;2.75;;;;;25.26;48.72;101311.78;5092487;27;45452;-46
2021/09/11 03:56:21;;;;;;;;;4.50;3.75;;;;;25.26;48.36;101315.31;5076778;28;45499;-46
2021/09/11 03:58:46;;;;;;;;;3.25;2.00;;;;;25.27;48.02;101314.38;5076573;28;46753;-47
2021/09/11 04:01:11;;;;;;;;;4.00;4.00;;;;;25.26;48.46;101309.16;5076336;28;49421;-46
2021/09/11 04:03:37;;;;;;;;;3.00;3.00;;;;;25.27;48.04;101319.66;5076670;27;45330;-45
2021/09/11 04:06:02;;;;;;;;;3.00;3.00;;;;;25.27;48.40;101324.13;5092609;27;45556;-49
2021/09/11 04:08:30;;;;;;;;;3.00;3.00;;;;;25.26;47.86;101328.59;5076418;28;46542;-47
2021/09/11 04:10:57;;;;;;;;;2.75;2.00;;;;;25.24;47.97;101319.88;5076505;28;45373;-50
2021/09/11 04:13:23;;;;;;;;;4.00;3.00;;;;;25.25;48.27;101324.22;5076621;27;45317;-48
2021/09/11 04:15:48;;;;;;;;;2.00;2.00;;;;;25.25;48.11;101321.56;5076774;27;45471;-49
2021/09/11 04:18:13;;;;;;;;;2.25;2.25;;;;;25.27;47.73;101324.13;5080362;27;46650;-49
2021/09/11 04:20:39;;;;;;;;;3.00;3.00;;;;;25.24;47.55;101316.38;5079958;27;45418;-47
2021/09/11 04:23:04;;;;;;;;;3.00;3.00;;;;;25.24;47.53;101322.53;5080080;28;45437;-49
2021/09/11 04:25:29;;;;;;;;;3.00;2.25;;;;;25.24;47.68;101321.69;5080338;27;45509;-46
2021/09/11 04:27:55;;;;;;;;;3.00;3.00;;;;;25.23;48.07;101320.81;5079857;27;45359;-50
2021/09/11 04:30:20;;;;;;;;;4.00;4.00;;;;;25.24;48.28;101330.47;5079951;28;45381;-48
2021/09/11 04:32:46;;;;;;;;;2.25;2.25;;;;;25.21;47.88;101325.38;5080324;28;45354;-49
2021/09/11 04:35:11;;;;;;;;;4.00;2.75;;;;;25.23;47.96;101328.78;5080048;27;45642;-49
2021/09/11 04:37:36;;;;;;;;;1.75;1.75;;;;;25.24;47.87;101321.69;5079755;28;45322;-47
2021/09/11 04:40:02;;;;;;;;;2.00;2.00;;;;;25.24;48.11;101325.19;5079763;27;45371;-47
2021/09/11 04:42:28;;;;;;;;;2.00;2.00;;;;;25.24;48.18;101327.81;5079648;28;45238;-48
2021/09/11 04:44:53;;;;;;;;;3.00;3.00;;;;;25.24;48.23;101325.19;5078520;28;45364;-48
2021/09/11 04:47:19;;;;;;;;;2.00;2.00;;;;;25.24;47.41;101324.34;5079730;27;46285;-49
2021/09/11 04:49:44;;;;;;;;;2.75;1.75;;;;;25.24;47.54;101325.19;5078423;28;50255;-49
2021/09/11 04:52:09;;;;;;;;;2.00;2.00;;;;;25.23;47.45;101326.13;5079590;28;45471;-50
2021/09/11 04:54:35;;;;;;;;;2.50;2.50;;;;;25.23;47.39;101328.78;5079775;27;45612;-47
2021/09/11 04:57:00;;;;;;;;;2.75;2.75;;;;;25.23;47.48;101325.28;5079490;28;45254;-47
2021/09/11 04:59:25;;;;;;;;;2.00;2.00;;;;;25.23;47.34;101333.25;5079247;28;45541;-50
2021/09/11 05:01:51;;;;;;;;;3.00;3.00;;;;;25.22;47.42;101335.03;5079468;28;45446;-49
2021/09/11 05:04:17;;;;;;;;;1.50;1.50;;;;;25.20;47.38;101330.78;5080048;28;45568;-47
2021/09/11 05:06:42;;;;;;;;;3.00;3.00;;;;;25.22;47.52;101331.56;5079105;28;45567;-52
2021/09/11 05:09:08;;;;;;;;;2.25;2.25;;;;;25.21;47.69;101328.03;5079288;27;45337;-48
2021/09/11 05:11:33;;;;;;;;;1.50;1.50;;;;;25.21;47.21;101330.69;5079458;27;45374;-48
2021/09/11 05:13:58;;;;;;;;;4.00;4.00;;;;;25.22;47.60;101345.66;5079503;27;45346;-49
2021/09/11 05:16:24;;;;;;;;;2.75;2.75;;;;;25.21;46.94;101340.47;5079118;28;46336;-45
2021/09/11 05:18:49;;;;;;;;;1.75;1.75;;;;;25.19;47.64;101337.88;5079124;28;45468;-48
2021/09/11 05:21:15;;;;;;;;;2.50;2.50;;;;;25.20;47.35;101338.75;5079307;27;45329;-47
2021/09/11 05:23:40;;;;;;;;;2.75;2.00;;;;;25.21;46.97;101341.28;5079368;28;45311;-50
2021/09/11 05:26:05;;;;;;;;;1.00;1.00;;;;;25.21;47.51;101338.63;5078787;28;46291;-47
2021/09/11 05:28:31;;;;;;;;;2.00;2.00;;;;;25.21;47.58;101337.81;5078270;28;45256;-48
2021/09/11 05:30:57;;;;;;;;;3.50;2.75;;;;;25.21;47.62;101340.47;5079053;28;45452;-48
2021/09/11 05:33:22;;;;;;;;;2.75;2.00;;;;;25.20;47.43;101338.75;5079157;28;45313;-48
2021/09/11 05:35:48;;;;;;;;;4.00;2.00;;;;;25.21;47.35;101340.47;5078929;28;46122;-47
2021/09/11 05:38:13;;;;;;;;;2.00;2.00;;;;;25.19;47.60;101348.50;5078925;28;45297;-47
2021/09/11 05:40:38;;;;;;;;;2.00;2.00;;;;;25.21;46.91;101349.25;5078783;28;45804;-47
2021/09/11 05:43:04;;;;;;;;;1.25;1.25;;;;;25.20;47.49;101344.06;5079179;28;45236;-48
2021/09/11 05:45:29;;;;;;;;;2.25;2.00;;;;;25.21;47.32;101351.06;5078583;28;45567;-47
2021/09/11 05:47:54;;;;;;;;;2.75;2.00;;;;;25.21;47.50;101349.25;5078756;28;45306;-51
2021/09/11 05:50:20;;;;;;;;;2.00;2.00;;;;;25.21;47.06;101353.72;5079014;28;45449;-47
2021/09/11 05:52:45;;;;;;;;;3.00;3.00;;;;;25.21;47.05;101356.38;5079105;28;45166;-46
2021/09/11 05:55:11;;;;;;;;;1.25;1.25;;;;;25.20;47.36;101354.66;5078496;28;46298;-48
2021/09/11 05:57:36;;;;;;;;;2.00;2.00;;;;;25.21;46.83;101366.97;5078600;27;45434;-49
2021/09/11 06:00:04;;;;;;;;;3.00;2.00;;;;;25.20;46.90;101371.41;5078406;28;45303;-50
2021/09/11 06:02:29;;;;;;;;;4.00;2.00;;;;;25.18;46.54;101373.34;5078603;28;45279;-46
2021/09/11 06:04:54;;;;;;;;;2.00;2.00;;;;;25.17;46.93;101371.66;5078260;28;45971;-51
2021/09/11 06:07:20;;;;;;;;;1.75;1.75;;;;;25.15;46.63;101379.69;5078720;28;45518;-46
2021/09/11 06:09:54;;;;;;;;;2.00;1.50;;;;;25.14;46.70;101382.47;5078535;28;45378;-46
2021/09/11 06:12:20;;;;;;;;;2.00;2.00;;;;;25.14;46.25;101385.09;5077404;27;45563;-47
2021/09/11 06:14:45;;;;;;;;;1.25;1.00;;;;;25.13;46.40;101396.66;5078165;28;46036;-46
2021/09/11 06:17:11;;;;;;;;;2.00;2.00;;;;;25.10;45.88;101388.91;5078060;28;45309;-46
2021/09/11 06:19:36;;;;;;;;;3.00;3.00;;;;;25.09;46.40;101396.03;5078197;28;45820;-46
2021/09/11 06:22:03;;;;;;;;;4.25;3.25;;;;;25.07;46.48;101391.78;5078451;28;45728;-47
2021/09/11 06:24:29;;;;;;;;;2.00;2.00;;;;;25.05;46.28;101407.78;5093761;27;48333;-49
2021/09/11 06:26:54;;;;;;;;;3.00;3.00;;;;;25.05;46.13;101394.53;5078087;27;45401;-47
2021/09/11 06:29:20;;;;;;;;;2.00;2.00;;;;;25.04;45.61;101403.41;5078413;27;45288;-48
2021/09/11 06:31:46;;;;;;;;;2.25;2.25;;;;;25.05;45.52;101409.59;5078215;28;45444;-46
2021/09/11 06:34:11;;;;;;;;;1.50;1.50;;;;;25.04;45.39;101403.41;5077759;27;46205;-48
2021/09/11 06:36:37;;;;;;;;;2.75;2.75;;;;;25.03;45.27;101406.19;5077750;28;45568;-48
2021/09/11 06:39:02;;;;;;;;;1.00;1.00;;;;;25.00;45.68;101397.47;5077845;27;45315;-48
2021/09/11 06:41:27;;;;;;;;;1.75;1.75;;;;;24.96;45.16;101396.00;5076975;28;45322;-48
2021/09/11 06:43:53;;;;;;;;;4.25;1.25;;;;;24.98;45.14;101406.50;5078085;27;46202;-47
2021/09/11 06:46:18;;;;;;;;;1.25;1.25;;;;;24.97;45.08;101402.97;5077959;28;45350;-49
2021/09/11 06:48:44;;;;;;;;;1.25;1.00;;;;;24.96;45.67;101382.75;5077604;27;45459;-47
2021/09/11 06:51:13;;;;;;;;;1.00;1.00;;;;;24.95;45.35;101404.91;5078035;28;45316;-46
2021/09/11 06:53:38;;;;;;;;;2.00;1.00;;;;;24.98;45.46;101419.75;5077478;28;47073;-47
2021/09/11 06:56:04;;;;;;;;;1.50;1.50;;;;;24.98;45.60;101411.78;5077526;28;45306;-48
2021/09/11 06:58:29;;;;;;;;;1.00;1.00;;;;;24.97;45.19;101408.28;5077505;28;45303;-47
2021/09/11 07:00:55;;;;;;;;;4.00;2.25;;;;;24.97;44.99;101412.75;5077408;28;45513;-47
2021/09/11 07:03:20;;;;;;;;;1.00;1.00;;;;;24.96;45.40;101417.22;5077520;28;45718;-46
2021/09/11 07:05:46;;;;;;;;;1.00;1.00;;;;;24.95;45.47;101428.75;5077397;28;45456;-47
2021/09/11 07:08:11;;;;;;;;;2.00;2.00;;;;;24.94;45.29;101428.84;5077510;28;45464;-49
2021/09/11 07:10:36;;;;;;;;;0.25;0.25;;;;;24.91;45.04;101415.81;5077576;28;45371;-47
2021/09/11 07:13:02;;;;;;;;;1.00;1.00;;;;;24.91;44.64;101427.25;5077338;28;45406;-46
2021/09/11 07:15:27;;;;;;;;;4.00;2.00;;;;;24.90;44.83;101430.00;5075879;28;45444;-46
2021/09/11 07:17:53;;;;;;;;;4.00;2.50;;;;;24.89;45.06;101428.31;5077580;28;45816;-45
2021/09/11 07:20:18;;;;;;;;;2.00;2.00;;;;;24.88;44.93;101435.41;5077445;27;45299;-45
2021/09/11 07:22:44;;;;;;;;;2.25;2.00;;;;;24.86;44.41;101431.97;5092706;27;48426;-46
2021/09/11 07:25:10;;;;;;;;;3.00;2.00;;;;;24.89;44.72;101437.09;5077037;28;45473;-46
2021/09/11 07:27:35;;;;;;;;;2.00;2.00;;;;;24.88;44.56;101440.69;5077237;28;45436;-48
2021/09/11 07:30:00;;;;;;;;;1.00;1.00;;;;;24.88;44.41;101435.41;5076985;28;45917;-46
2021/09/11 07:32:26;;;;;;;;;1.00;1.00;;;;;24.87;44.79;101433.69;5076773;27;46407;-46
2021/09/11 07:34:52;;;;;;;;;0.00;0.00;;;;;24.87;44.94;101431.03;5077250;28;45386;-46
2021/09/11 07:37:17;;;;;;;;;2.75;1.00;;;;;24.88;44.71;101434.56;5077206;28;45243;-47
2021/09/11 07:39:43;;;;;;;;;1.50;1.50;;;;;24.86;44.06;101431.97;5075932;28;45518;-49
2021/09/11 07:42:08;;;;;;;;;1.75;1.75;;;;;24.86;44.33;101434.63;5076848;28;45358;-46
2021/09/11 07:44:33;;;;;;;;;1.50;1.00;;;;;24.87;43.91;101439.00;5076766;28;46078;-43
2021/09/11 07:46:59;;;;;;;;;1.00;1.00;;;;;24.87;44.17;101436.34;5075490;28;45270;-49
2021/09/11 07:49:24;;;;;;;;;2.00;2.00;;;;;24.87;44.75;101433.69;5077478;28;45219;-42
2021/09/11 07:51:50;;;;;;;;;2.00;1.25;;;;;24.86;44.25;101437.28;5076380;27;45241;-43
2021/09/11 07:54:16;;;;;;;;;0.50;0.00;;;;;24.86;44.32;101442.59;5076626;27;45476;-42
2021/09/11 07:56:41;;;;;;;;;1.25;1.25;;;;;24.85;43.86;101435.63;5076758;28;45460;-42
2021/09/11 07:59:07;;;;;;;;;2.00;1.75;;;;;24.84;44.50;101441.88;5076948;27;45766;-45
2021/09/11 08:01:33;;;;;;;;;3.75;2.00;;;;;24.85;44.36;101447.06;5076318;28;46522;-44
2021/09/11 08:03:59;;;;;;;;;0.50;0.50;;;;;24.85;43.98;101446.22;5076580;28;45393;-44
2021/09/11 08:06:24;;;;;;;;;1.50;1.00;;;;;24.84;44.35;101445.34;5076995;28;45450;-42
2021/09/11 08:08:49;;;;;;;;;1.00;1.00;;;;;24.82;43.86;101446.41;5076775;28;45428;-47
2021/09/11 08:11:16;;;;;;;;;2.75;2.75;;;;;24.83;43.67;101462.22;5076431;28;45427;-44
2021/09/11 08:13:42;;;;;;;;;1.00;1.00;;;;;24.82;44.14;101455.19;5076109;28;45268;-43
2021/09/11 08:16:07;;;;;;;;;1.00;1.00;;;;;24.82;44.15;101467.63;5076581;27;45181;-47
2021/09/11 08:18:33;;;;;;;;;1.00;1.00;;;;;24.81;44.19;101466.75;5076741;28;45702;-43
2021/09/11 08:20:58;;;;;;;;;2.00;2.00;;;;;24.80;44.06;101462.44;5076461;28;45292;-44
2021/09/11 08:23:23;;;;;;;;;3.00;1.00;;;;;24.80;43.48;101466.84;5076743;28;45272;-47
2021/09/11 08:25:50;;;;;;;;;1.25;1.25;;;;;24.81;43.37;101468.56;5076412;27;45246;-43
2021/09/11 08:28:16;;;;;;;;;0.25;0.25;;;;;24.81;43.77;101476.50;5072831;27;45885;-46
2021/09/11 08:30:41;;;;;;;;;1.00;1.00;;;;;24.78;43.68;101466.97;5075355;27;45729;-43
2021/09/11 08:33:10;;;;;;;;;2.00;1.00;;;;;24.81;43.88;101481.81;5069360;28;45315;-41
2021/09/11 08:35:36;;;;;;;;;1.00;1.00;;;;;24.80;43.24;101480.13;5063706;28;45382;-44
2021/09/11 08:38:01;;;;;;;;;0.50;0.50;;;;;24.79;43.31;101479.28;5066859;28;45580;-46
2021/09/11 08:40:27;;;;;;;;;1.00;1.00;;;;;24.80;43.67;101474.81;5066228;28;45704;-42
2021/09/11 08:42:52;;;;;;;;;1.00;1.00;;;;;24.79;43.74;101479.28;5060492;28;45439;-41
2021/09/11 08:45:18;;;;;;;;;1.50;1.50;;;;;24.78;42.74;101476.69;5064141;28;45291;-45
2021/09/11 08:47:44;;;;;;;;;1.25;1.00;;;;;24.81;42.79;101481.81;5055761;28;45523;-43
2021/09/11 08:50:14;;;;;;;;;2.00;1.00;;;;;24.81;42.56;101471.22;5055057;28;46514;-43
2021/09/11 08:52:44;;;;;;;;;1.00;1.00;;;;;24.78;43.08;101487.31;5064162;27;45568;-42
2021/09/11 08:55:11;;;;;;;;;2.25;2.00;;;;;24.80;42.98;101491.59;5074530;27;46098;-43
2021/09/11 08:57:37;;;;;;;;;2.25;1.00;;;;;24.80;42.29;101480.97;5075762;27;45346;-42
2021/09/11 09:00:07;;;;;;;;;2.00;1.75;;;;;24.80;42.98;101485.41;5074355;28;45545;-42
2021/09/11 09:02:34;;;;;;;;;2.00;2.00;;;;;24.81;43.04;101492.41;5054578;28;45243;-43
2021/09/11 09:05:01;;;;;;;;;1.00;1.00;;;;;24.81;42.99;101480.00;5058794;28;45364;-42
2021/09/11 09:07:38;;;;;;;;;2.25;2.25;;;;;24.81;42.96;101485.31;5059243;28;45355;-45
2021/09/11 09:10:16;;;;;;;;;4.75;2.00;;;;;24.81;42.93;101477.34;5058494;28;46169;-42
2021/09/11 09:12:44;;;;;;;;;1.50;1.50;;;;;24.82;42.42;101478.22;5057022;28;45899;-45
2021/09/11 09:15:17;;;;;;;;;3.00;3.00;;;;;24.86;42.82;101479.72;5058809;28;45283;-46
2021/09/11 09:17:54;;;;;;;;;3.25;3.00;;;;;24.88;42.68;101488.41;5059281;28;45345;-50
2021/09/11 09:20:26;;;;;;;;;2.25;2.25;;;;;24.86;42.47;101477.06;5058780;28;46380;-50
2021/09/11 09:23:17;;;;;;;;;3.00;2.00;;;;;24.83;42.19;101479.94;5058311;28;45942;-48
2021/09/11 09:25:43;;;;;;;;;3.25;1.75;;;;;24.83;42.05;101479.94;5058682;28;45355;-50
2021/09/11 09:28:14;;;;;;;;;1.75;1.75;;;;;24.81;42.07;101472.06;5058827;28;45369;-50
2021/09/11 09:30:45;;;;;;;;;1.75;1.75;;;;;24.79;42.23;101470.47;5058215;28;45671;-48
2021/09/11 09:33:19;;;;;;;;;4.00;2.00;;;;;24.78;42.51;101466.97;5057814;28;45446;-46
2021/09/11 09:35:45;;;;;;;;;1.50;1.00;;;;;24.77;42.46;101472.34;5058044;28;45509;-51
2021/09/11 09:38:11;;;;;;;;;1.75;1.75;;;;;24.76;42.24;101468.00;5058851;28;45897;-54
2021/09/11 09:40:36;;;;;;;;;3.25;1.75;;;;;24.77;42.73;101470.56;5058106;28;46229;-49
2021/09/11 09:43:03;;;;;;;;;5.00;4.00;;;;;24.78;42.52;101466.09;5058440;28;45351;-51
2021/09/11 09:45:30;;;;;;;;;3.50;1.25;;;;;24.77;42.37;101461.75;5058678;28;45475;-51
2021/09/11 09:48:13;;;;;;;;;2.00;2.00;;;;;24.78;42.66;101466.97;5058289;28;45344;-51
2021/09/11 09:50:42;;;;;;;;;4.00;3.00;;;;;24.78;42.37;101472.28;5057819;28;46186;-48
2021/09/11 09:53:09;;;;;;;;;2.00;2.00;;;;;24.76;42.62;101458.25;5053477;28;45862;-52
2021/09/11 09:55:42;;;;;;;;;4.25;3.00;;;;;24.81;42.21;101465.91;5046320;28;45731;-49
2021/09/11 09:58:08;;;;;;;;;2.00;2.00;;;;;24.82;42.15;101463.16;5029697;28;45547;-51
2021/09/11 10:00:33;;;;;;;;;5.00;2.00;;;;;24.82;42.05;101449.06;5061683;28;46490;-53
2021/09/11 10:02:59;;;;;;;;;2.00;2.00;;;;;24.86;41.71;101455.84;5069266;28;45426;-52
2021/09/11 10:05:29;;;;;;;;;2.00;2.00;;;;;24.90;41.69;101453.88;5077947;28;45450;-49
2021/09/11 10:08:16;;;;;;;;;1.25;1.00;;;;;24.91;42.16;101461.72;5078303;28;45564;-53
2021/09/11 10:10:45;;;;;;;;;3.25;2.25;;;;;24.92;41.58;101458.13;5077594;28;47251;-51
2021/09/11 10:13:12;;;;;;;;;2.00;2.00;;;;;24.95;41.48;101452.63;5078037;27;45424;-51
2021/09/11 10:15:57;;;;;;;;;3.00;3.00;;;;;24.96;42.06;101453.47;5077833;28;45279;-53
2021/09/11 10:18:38;;;;;;;;;2.00;2.00;;;;;24.97;41.52;101452.53;5078296;28;45641;-49
2021/09/11 10:21:28;;;;;;;;;2.00;2.00;;;;;24.97;41.72;101453.34;5077489;27;45471;-48
2021/09/11 10:23:57;;;;;;;;;3.00;3.00;;;;;24.96;42.01;101459.63;5076494;28;46059;-51
2021/09/11 10:26:47;;;;;;;;;1.25;1.25;;;;;24.97;41.90;101456.00;5078091;28;45464;-48
2021/09/11 10:32:05;;;;;;;;;2.50;2.50;;;;;24.97;41.77;101455.16;5078086;28;45302;-52
2021/09/11 10:34:53;;;;;;;;;4.00;4.00;;;;;24.97;42.03;101449.88;5078006;28;45732;-50
2021/09/11 10:37:37;;;;;;;;;3.75;2.50;;;;;24.96;41.57;101454.34;5077811;27;45352;-50
2021/09/11 10:40:21;;;;;;;;;5.00;3.50;;;;;24.97;41.95;101458.66;5077927;28;45329;-51
2021/09/11 10:42:58;;;;;;;;;2.00;2.00;;;;;24.99;41.64;101450.63;5077344;28;46325;-47
2021/09/11 10:45:57;;;;;;;;;3.00;3.00;;;;;25.01;42.17;101446.06;5077547;28;45416;-51
2021/09/11 10:48:30;;;;;;;;;4.00;2.00;;;;;25.03;41.54;101445.97;5077643;28;45394;-51
2021/09/11 10:50:56;;;;;;;;;3.00;3.00;;;;;25.01;41.72;101446.91;5077712;27;45575;-52
2021/09/11 10:53:23;;;;;;;;;2.25;1.75;;;;;24.99;41.61;101448.81;5077436;27;46797;-53
2021/09/11 10:55:48;;;;;;;;;6.00;3.00;;;;;25.01;41.80;101444.25;5077257;28;45823;-52
2021/09/11 10:58:24;;;;;;;;;2.00;2.00;;;;;25.00;41.44;101445.22;5077325;27;45392;-52
2021/09/11 11:01:00;;;;;;;;;4.50;3.50;;;;;24.99;41.30;101451.47;5077293;28;45401;-53
2021/09/11 11:03:27;;;;;;;;;2.00;2.00;;;;;24.99;41.24;101455.94;5077238;27;46240;-52
2021/09/11 11:05:59;;;;;;;;;2.50;2.50;;;;;24.98;41.53;101451.56;5073108;28;45225;-56
2021/09/11 11:08:25;;;;;;;;;3.00;3.00;;;;;24.97;42.14;101452.53;5057328;28;45386;-56
2021/09/11 11:10:51;;;;;;;;;5.00;4.00;;;;;24.98;41.69;101446.25;5057544;28;45268;-56
2021/09/11 11:13:16;;;;;;;;;4.50;4.00;;;;;25.00;42.07;101450.50;5056886;28;46450;-56
2021/09/11 11:15:41;;;;;;;;;2.25;2.25;;;;;25.01;42.24;101444.25;5057088;28;45384;-56
2021/09/11 11:18:07;;;;;;;;;2.75;2.25;;;;;25.00;41.86;101445.22;5057276;28;45240;-57
2021/09/11 11:20:32;;;;;;;;;3.00;3.00;;;;;25.04;41.87;101451.16;5057392;28;45551;-56
2021/09/11 11:22:59;;;;;;;;;2.25;2.25;;;;;25.05;42.23;101444.91;5056792;28;45272;-56
2021/09/11 11:25:32;;;;;;;;;2.75;2.75;;;;;25.07;42.35;101450.13;5056692;28;45201;-57